Time;durP1;ratioP1;P1;durP2;ratioP2;P2;SDS_P1;SDS_P2;PMS_P1;PMS_P2;Temp;Humidity;BMP_temperature;BMP_pressure;BME280_temperature;BME280_humidity;BME280_pressure;Samples;Min_cycle;Max_cycle;Signal;HPM_P1;HPM_P2
2022/04/23 00:03:24;;;;;;;1.77;1.60;;;;;;;;;;20940817;28;20139;-87
2022/04/23 00:13:26;;;;;;;2.22;1.55;;;;;;;;;;20945853;28;20170;-85
2022/04/23 00:23:31;;;;;;;1.75;1.60;;;;;;;;;;20990772;28;20044;-83
2022/04/23 00:33:37;;;;;;;2.92;1.90;;;;;;;;;;20983080;28;20116;-85
2022/04/23 00:43:47;;;;;;;2.28;1.83;;;;;;;;;;21032369;28;20139;-85
2022/04/23 00:53:49;;;;;;;2.67;2.00;;;;;;;;;;21079215;28;20549;-86
2022/04/23 01:03:53;;;;;;;2.42;2.15;;;;;;;;;;21048017;28;20048;-86
2022/04/23 01:13:56;;;;;;;2.33;2.13;;;;;;;;;;21011140;28;20082;-88
2022/04/23 01:23:59;;;;;;;2.67;2.15;;;;;;;;;;21072332;28;20048;-86
2022/04/23 01:34:01;;;;;;;2.30;1.77;;;;;;;;;;21057983;28;20470;-87
2022/04/23 01:44:03;;;;;;;2.83;2.22;;;;;;;;;;21063779;28;20120;-84
2022/04/23 01:54:05;;;;;;;3.15;2.30;;;;;;;;;;21064693;28;20082;-86
2022/04/23 02:04:08;;;;;;;3.08;2.60;;;;;;;;;;21071260;28;20066;-86
2022/04/23 02:14:10;;;;;;;2.67;2.00;;;;;;;;;;21018336;28;20071;-86
2022/04/23 02:24:13;;;;;;;2.75;2.30;;;;;;;;;;21074578;28;20052;-87
2022/04/23 02:34:16;;;;;;;2.38;2.17;;;;;;;;;;21067857;28;20059;-83
2022/04/23 02:44:19;;;;;;;2.83;2.10;;;;;;;;;;21073258;28;20438;-87
2022/04/23 02:54:23;;;;;;;2.70;2.40;;;;;;;;;;21051181;28;20044;-87
2022/04/23 03:04:26;;;;;;;3.33;2.90;;;;;;;;;;21060524;28;20040;-85
2022/04/23 03:14:31;;;;;;;2.47;2.28;;;;;;;;;;21074408;28;20066;-86
2022/04/23 03:24:36;;;;;;;2.40;2.20;;;;;;;;;;21064014;28;20054;-86
2022/04/23 03:34:39;;;;;;;2.40;2.20;;;;;;;;;;21030605;28;20052;-87
2022/04/23 03:44:41;;;;;;;2.50;2.30;;;;;;;;;;21014640;28;20086;-84
2022/04/23 03:54:47;;;;;;;2.83;2.30;;;;;;;;;;21061486;28;20097;-87
2022/04/23 04:04:49;;;;;;;2.25;2.05;;;;;;;;;;21052863;28;20054;-89
2022/04/23 04:14:52;;;;;;;3.90;2.65;;;;;;;;;;21069473;28;20039;-85
2022/04/23 04:24:53;;;;;;;3.00;2.70;;;;;;;;;;21043365;28;20058;-88
2022/04/23 04:34:55;;;;;;;2.53;2.33;;;;;;;;;;21071858;28;20097;-86
2022/04/23 04:44:59;;;;;;;2.38;2.10;;;;;;;;;;21062911;28;20491;-88
2022/04/23 04:55:01;;;;;;;2.15;1.92;;;;;;;;;;21048740;28;20040;-91
2022/04/23 05:05:03;;;;;;;3.13;2.33;;;;;;;;;;21075296;28;20436;-86
2022/04/23 05:15:07;;;;;;;2.33;2.05;;;;;;;;;;21033523;28;20466;-89
2022/04/23 05:25:09;;;;;;;3.60;2.40;;;;;;;;;;21039256;28;20044;-87
2022/04/23 05:35:11;;;;;;;2.50;2.30;;;;;;;;;;21013877;28;20123;-83
2022/04/23 05:45:12;;;;;;;3.05;2.20;;;;;;;;;;21006466;28;20054;-90
2022/04/23 05:55:16;;;;;;;2.65;2.08;;;;;;;;;;21078242;28;20086;-91
2022/04/23 06:05:18;;;;;;;3.03;2.30;;;;;;;;;;21066481;28;20051;-90
2022/04/23 06:15:19;;;;;;;2.40;1.95;;;;;;;;;;21040530;28;20048;-88
2022/04/23 06:25:21;;;;;;;2.33;2.00;;;;;;;;;;21053104;28;20067;-90
2022/04/23 06:35:24;;;;;;;3.05;2.33;;;;;;;;;;21050739;28;20048;-88
2022/04/23 06:45:25;;;;;;;2.55;2.15;;;;;;;;;;21034257;28;20051;-89
2022/04/23 06:55:28;;;;;;;2.20;2.00;;;;;;;;;;21029336;28;20135;-83
2022/04/23 07:05:30;;;;;;;2.97;2.10;;;;;;;;;;21014992;28;20047;-89
2022/04/23 07:15:31;;;;;;;2.65;2.28;;;;;;;;;;21040582;28;20040;-87
2022/04/23 07:25:34;;;;;;;2.60;2.40;;;;;;;;;;21057486;28;20052;-89
2022/04/23 07:45:56;;;;;;;3.15;2.83;;;;;;;;;;21060421;28;20055;-86
2022/04/23 07:55:58;;;;;;;2.83;2.53;;;;;;;;;;21012654;28;20044;-84
2022/04/23 08:06:00;;;;;;;2.95;2.50;;;;;;;;;;21024355;28;20054;-85
2022/04/23 08:16:05;;;;;;;3.38;2.20;;;;;;;;;;21049353;28;20044;-84
2022/04/23 08:26:06;;;;;;;5.57;2.77;;;;;;;;;;21061313;28;20044;-88
2022/04/23 08:36:08;;;;;;;2.92;2.63;;;;;;;;;;21085191;28;20044;-87
2022/04/23 08:46:11;;;;;;;2.67;2.33;;;;;;;;;;21075998;28;20056;-88
2022/04/23 08:56:16;;;;;;;3.53;2.50;;;;;;;;;;21098232;28;20054;-90
2022/04/23 09:06:17;;;;;;;3.80;2.42;;;;;;;;;;21094515;28;20142;-87
2022/04/23 09:26:41;;;;;;;3.65;2.70;;;;;;;;;;21088260;28;20426;-83
2022/04/23 09:37:00;;;;;;;3.90;2.80;;;;;;;;;;21063561;28;20054;-84
2022/04/23 09:47:02;;;;;;;2.95;2.58;;;;;;;;;;21020786;28;20146;-85
2022/04/23 09:57:06;;;;;;;3.70;3.03;;;;;;;;;;20989196;28;20063;-85
2022/04/23 10:07:09;;;;;;;3.15;2.78;;;;;;;;;;21006315;28;20049;-86
2022/04/23 10:17:17;;;;;;;3.13;2.83;;;;;;;;;;20999536;28;20155;-84
2022/04/23 10:27:25;;;;;;;3.30;2.90;;;;;;;;;;20983499;28;20136;-79
2022/04/23 10:37:39;;;;;;;3.20;2.90;;;;;;;;;;21002825;28;20056;-88
2022/04/23 10:47:41;;;;;;;2.90;2.60;;;;;;;;;;21047784;28;20074;-90
2022/04/23 10:57:52;;;;;;;3.03;2.72;;;;;;;;;;21064816;28;20397;-88
2022/04/23 11:18:45;;;;;;;2.72;2.50;;;;;;;;;;20985921;28;20059;-89
2022/04/23 11:28:58;;;;;;;2.88;2.58;;;;;;;;;;20983130;28;20037;-88
2022/04/23 11:39:09;;;;;;;2.92;2.67;;;;;;;;;;21014574;28;20055;-89
2022/04/23 11:49:23;;;;;;;2.90;2.60;;;;;;;;;;21031528;28;20040;-85
2022/04/23 11:59:33;;;;;;;3.00;2.70;;;;;;;;;;21037458;28;20036;-85
2022/04/23 12:09:51;;;;;;;5.47;2.70;;;;;;;;;;21073968;28;20087;-87
2022/04/23 12:19:59;;;;;;;2.95;2.42;;;;;;;;;;21070330;28;20056;-90
2022/04/23 12:50:43;;;;;;;2.40;2.20;;;;;;;;;;21086111;28;20087;-91
2022/04/23 13:00:46;;;;;;;2.30;2.10;;;;;;;;;;21033902;28;20044;-90
2022/04/23 13:10:48;;;;;;;2.47;2.13;;;;;;;;;;21050602;28;20048;-89
2022/04/23 13:20:50;;;;;;;2.40;2.20;;;;;;;;;;21048004;28;20047;-91
2022/04/23 13:30:52;;;;;;;2.70;2.40;;;;;;;;;;21065515;28;20052;-88
2022/04/23 13:40:54;;;;;;;2.88;2.55;;;;;;;;;;21064155;28;20246;-90
2022/04/23 13:50:56;;;;;;;2.55;2.10;;;;;;;;;;21046965;28;20238;-89
2022/04/23 14:00:58;;;;;;;2.33;2.10;;;;;;;;;;21062704;28;20051;-89
2022/04/23 14:11:00;;;;;;;2.75;2.33;;;;;;;;;;21080306;28;20135;-90
2022/04/23 14:21:01;;;;;;;2.40;1.88;;;;;;;;;;21061737;28;20508;-91
2022/04/23 14:31:03;;;;;;;2.70;2.50;;;;;;;;;;21078613;28;20052;-89
2022/04/23 14:41:05;;;;;;;2.40;2.20;;;;;;;;;;21042464;28;20448;-90
2022/04/23 15:01:28;;;;;;;2.13;1.92;;;;;;;;;;21057342;28;20047;-90
2022/04/23 15:11:30;;;;;;;1.98;1.80;;;;;;;;;;21075179;28;20059;-90
2022/04/23 15:21:32;;;;;;;1.98;1.80;;;;;;;;;;21046380;28;20050;-90
2022/04/23 15:31:34;;;;;;;2.63;2.15;;;;;;;;;;21002691;28;20533;-88
2022/04/23 15:41:36;;;;;;;2.33;1.90;;;;;;;;;;20973480;28;20048;-84
2022/04/23 15:51:37;;;;;;;2.28;1.98;;;;;;;;;;20989493;28;20050;-85
2022/04/23 16:01:39;;;;;;;1.98;1.80;;;;;;;;;;21072032;28;20083;-86
2022/04/23 16:11:44;;;;;;;2.33;2.05;;;;;;;;;;21071674;28;20406;-83
2022/04/23 16:21:46;;;;;;;5.13;2.30;;;;;;;;;;21019928;28;20045;-88
2022/04/23 16:31:49;;;;;;;2.30;2.10;;;;;;;;;;21020330;28;20059;-87
2022/04/23 16:52:11;;;;;;;3.15;2.20;;;;;;;;;;21039485;28;20126;-86
2022/04/23 17:02:13;;;;;;;2.33;1.92;;;;;;;;;;21081001;28;20048;-84
2022/04/23 17:12:15;;;;;;;3.38;2.00;;;;;;;;;;21085099;28;20048;-85
2022/04/23 17:22:17;;;;;;;2.13;1.80;;;;;;;;;;21049545;28;20044;-88
2022/04/23 17:32:19;;;;;;;3.13;2.08;;;;;;;;;;21065483;28;20093;-85
2022/04/23 17:42:20;;;;;;;4.20;2.72;;;;;;;;;;21030619;28;20428;-88
2022/04/23 17:52:22;;;;;;;2.30;2.03;;;;;;;;;;21063731;28;20076;-86
2022/04/23 18:12:45;;;;;;;5.63;2.47;;;;;;;;;;21047951;28;20127;-86
2022/04/23 18:22:48;;;;;;;2.53;1.73;;;;;;;;;;21063042;28;20044;-92
2022/04/23 18:32:51;;;;;;;2.10;1.90;;;;;;;;;;21049566;28;20123;-91
2022/04/23 18:43:27;;;;;;;1.97;1.83;;;;;;;;;;21030637;28;20054;-88
2022/04/23 18:53:32;;;;;;;2.37;2.17;;;;;;;;;;21060062;28;20048;-90
2022/04/23 19:03:39;;;;;;;2.05;1.80;;;;;;;;;;21061812;28;20052;-90
2022/04/23 19:34:51;;;;;;;1.85;1.75;;;;;;;;;;21080342;28;20040;-92
2022/04/23 19:44:56;;;;;;;3.42;2.00;;;;;;;;;;21020237;28;20074;-89
2022/04/23 19:55:11;;;;;;;1.80;1.70;;;;;;;;;;21055257;28;20055;-89
2022/04/23 20:05:37;;;;;;;1.95;1.80;;;;;;;;;;21035141;28;20051;-91
2022/04/23 20:15:55;;;;;;;2.42;2.22;;;;;;;;;;21021435;28;20135;-92
2022/04/23 20:26:07;;;;;;;2.15;1.95;;;;;;;;;;21038032;28;20055;-93
2022/04/23 20:46:45;;;;;;;2.67;2.25;;;;;;;;;;21045661;28;20101;-93
2022/04/23 20:57:08;;;;;;;2.55;2.10;;;;;;;;;;21037445;28;20135;-90
2022/04/23 21:07:14;;;;;;;2.95;2.65;;;;;;;;;;21050500;28;20044;-90
2022/04/23 21:17:24;;;;;;;2.92;2.63;;;;;;;;;;21049902;28;20512;-91
2022/04/23 21:27:27;;;;;;;2.83;2.33;;;;;;;;;;21040922;28;20040;-91
2022/04/23 21:37:36;;;;;;;2.70;2.50;;;;;;;;;;20984953;28;20044;-92
2022/04/23 21:47:57;;;;;;;2.42;2.22;;;;;;;;;;21036391;28;20048;-90
2022/04/23 21:59:08;;;;;;;2.83;2.58;;;;;;;;;;21004140;28;20036;-90
2022/04/23 22:09:44;;;;;;;2.88;2.58;;;;;;;;;;21017419;28;20044;-91
2022/04/23 22:20:10;;;;;;;2.83;2.63;;;;;;;;;;21032072;28;20135;-91
2022/04/23 22:31:04;;;;;;;2.72;2.35;;;;;;;;;;20995500;28;20059;-91
2022/04/23 22:41:34;;;;;;;3.00;2.50;;;;;;;;;;21020556;28;20044;-88
2022/04/23 22:51:57;;;;;;;3.10;2.33;;;;;;;;;;21008867;28;20070;-91
2022/04/23 23:02:39;;;;;;;;;;;;;;;;;;;;;
2022/04/23 23:13:39;;;;;;;2.65;2.40;;;;;;;;;;21046175;28;20134;-91
2022/04/23 23:23:44;;;;;;;2.53;2.33;;;;;;;;;;21032574;28;20043;-88
2022/04/23 23:34:06;;;;;;;2.97;2.40;;;;;;;;;;21024244;28;20508;-88
2022/04/23 23:44:13;;;;;;;2.20;2.03;;;;;;;;;;21075000;28;20056;-90
2022/04/23 23:54:25;;;;;;;2.42;2.22;;;;;;;;;;21026349;28;20041;-91
